MV Melite — V7TM5 — position and weather

sailwx.info

Track history (hours):
 
Tides and Currents Weather Stations Pressure Air Temp Water Temp Dewpoint Dewpoint Depression Visibility Wind Speed Wind Dir Waves Ship Positions

MV Melite

Last reported at 2017-Jul-01 15:02 UTC. Time now 2017-Oct-18 16:50 UTC.
Position N 01°15' E 104°02'.
Warning: this ship's position is months out of date.

Length 225 m; draft 13.4 m.

Type: Cargo ship. MMSI: 538003832.

Date/timePositionNaut miles runAvg speedWind from/ knotsBaromVisibWave heightAir tempDewpointWater temp
2017-Jul-01 15:02N 01°15' E 104°02'111.7
2017-Jul-01 14:55N 01°15' E 104°01'6 6.1
2017-Jul-01 13:59N 01°16' E 103°56'1 0.8
2017-Jul-01 13:19N 01°17' E 103°55'0 0.0
2017-Jul-01 12:55N 01°17' E 103°55'0 0.0
2017-Jul-01 12:28N 01°17' E 103°55'0 0.0
2017-Jul-01 11:49N 01°17' E 103°55'0 0.0
2017-Jul-01 10:34N 01°17' E 103°55'0 0.0
2017-Jul-01 10:28N 01°17' E 103°55'0 0.0
2017-Jul-01 08:31N 01°17' E 103°55'0 0.3
2017-Jul-01 08:20N 01°17' E 103°55'0 0.0
2017-Jul-01 03:58N 01°17' E 103°56'0 0.1
2017-Jul-01 03:22N 01°17' E 103°56'0 0.0
2017-Jul-01 02:58N 01°17' E 103°56'0 0.0
2017-Jul-01 01:34N 01°17' E 103°56'0 0.1
2017-Jul-01 01:28N 01°17' E 103°56'0 0.0
2017-Jul-01 00:55N 01°17' E 103°56'0 0.0
2017-Jul-01 00:22N 01°17' E 103°56'0 0.0
2017-Jun-30 23:55N 01°17' E 103°56'0 0.0
2017-Jun-30 23:28N 01°17' E 103°56'0 0.0
2017-Jun-30 22:58N 01°17' E 103°56'0 0.0
2017-Jun-30 22:28N 01°17' E 103°56'0 0.0
2017-Jun-30 21:55N 01°17' E 103°56'0 0.0
2017-Jun-30 21:22N 01°17' E 103°56'0 0.3
2017-Jun-30 20:24N 01°17' E 103°55'1 3.7
2017-Jun-30 20:01N 01°16' E 103°56'2 4.8
2017-Jun-30 19:30N 01°13' E 103°56'510.4
2017-Jun-30 18:59N 01°11' E 103°51'511.2
2017-Jun-30 18:30N 01°09' E 103°47'611.9
2017-Jun-30 18:01N 01°05' E 103°42'5 9.9
2017-Jun-30 17:30N 01°03' E 103°38'611.4
2017-Jun-30 17:00N 01°06' E 103°33'611.1
2017-Jun-30 16:30N 01°10' E 103°28'711.1
2017-Jun-30 15:54N 01°13' E 103°23'6711.5
2017-Jun-30 10:02N 01°48' E 102°26'112.0
2017-Jun-30 09:56N 01°49' E 102°25'  
Track history (hours):
 
Tides and Currents Weather Stations Pressure Air Temp Water Temp Dewpoint Dewpoint Depression Visibility Wind Speed Wind Dir Waves Ship Positions

MV Melite

Last reported at 2017-Jul-01 15:02 UTC. Time now 2017-Oct-18 16:50 UTC.
Position N 01°15' E 104°02'.
Warning: this ship's position is months out of date.

Length 225 m; draft 13.4 m.

Type: Cargo ship. MMSI: 538003832.

Date/timePositionNaut miles runAvg speedWind from/ knotsBaromVisibWave heightAir tempDewpointWater temp
2017-Jul-01 15:02N 01°15' E 104°02'111.7
2017-Jul-01 14:55N 01°15' E 104°01'6 6.1
2017-Jul-01 13:59N 01°16' E 103°56'1 0.8
2017-Jul-01 13:19N 01°17' E 103°55'0 0.0
2017-Jul-01 12:55N 01°17' E 103°55'0 0.0
2017-Jul-01 12:28N 01°17' E 103°55'0 0.0
2017-Jul-01 11:49N 01°17' E 103°55'0 0.0
2017-Jul-01 10:34N 01°17' E 103°55'0 0.0
2017-Jul-01 10:28N 01°17' E 103°55'0 0.0
2017-Jul-01 08:31N 01°17' E 103°55'0 0.3
2017-Jul-01 08:20N 01°17' E 103°55'0 0.0
2017-Jul-01 03:58N 01°17' E 103°56'0 0.1
2017-Jul-01 03:22N 01°17' E 103°56'0 0.0
2017-Jul-01 02:58N 01°17' E 103°56'0 0.0
2017-Jul-01 01:34N 01°17' E 103°56'0 0.1
2017-Jul-01 01:28N 01°17' E 103°56'0 0.0
2017-Jul-01 00:55N 01°17' E 103°56'0 0.0
2017-Jul-01 00:22N 01°17' E 103°56'0 0.0
2017-Jun-30 23:55N 01°17' E 103°56'0 0.0
2017-Jun-30 23:28N 01°17' E 103°56'0 0.0
2017-Jun-30 22:58N 01°17' E 103°56'0 0.0
2017-Jun-30 22:28N 01°17' E 103°56'0 0.0
2017-Jun-30 21:55N 01°17' E 103°56'0 0.0
2017-Jun-30 21:22N 01°17' E 103°56'0 0.3
2017-Jun-30 20:24N 01°17' E 103°55'1 3.7
2017-Jun-30 20:01N 01°16' E 103°56'2 4.8
2017-Jun-30 19:30N 01°13' E 103°56'510.4
2017-Jun-30 18:59N 01°11' E 103°51'511.2
2017-Jun-30 18:30N 01°09' E 103°47'611.9
2017-Jun-30 18:01N 01°05' E 103°42'5 9.9
2017-Jun-30 17:30N 01°03' E 103°38'611.4
2017-Jun-30 17:00N 01°06' E 103°33'611.1
2017-Jun-30 16:30N 01°10' E 103°28'711.1
2017-Jun-30 15:54N 01°13' E 103°23'6711.5
2017-Jun-30 10:02N 01°48' E 102°26'112.0
2017-Jun-30 09:56N 01°49' E 102°25'  

Dump ship's entire track history